createdAt,value
2017-10-04T00:00:01.749Z,16.97
2017-10-04T00:00:14.654Z,16.95
2017-10-04T00:00:28.989Z,16.91
2017-10-04T00:00:42.376Z,16.91
2017-10-04T00:00:55.165Z,16.94
2017-10-04T00:01:08.010Z,17
2017-10-04T00:01:20.282Z,17.02
2017-10-04T00:01:32.606Z,17.02
2017-10-04T00:01:46.035Z,16.92
2017-10-04T00:01:58.875Z,16.91
2017-10-04T00:02:11.704Z,16.97
2017-10-04T00:02:24.514Z,16.99
2017-10-04T00:02:37.364Z,16.92
2017-10-04T00:02:50.188Z,16.92
2017-10-04T00:03:02.535Z,16.88
2017-10-04T00:03:15.879Z,16.91
2017-10-04T00:03:29.502Z,16.9
2017-10-04T00:03:42.865Z,16.85
2017-10-04T00:03:56.227Z,16.88
2017-10-04T00:04:09.041Z,16.92
2017-10-04T00:04:22.414Z,16.92
2017-10-04T00:04:35.821Z,16.87
2017-10-04T00:04:48.978Z,16.94
2017-10-04T00:05:00.772Z,16.91
2017-10-04T00:05:13.101Z,16.95
2017-10-04T00:05:26.444Z,16.94
2017-10-04T00:05:39.786Z,16.88
2017-10-04T00:05:53.172Z,16.99
2017-10-04T00:06:05.987Z,16.88
2017-10-04T00:06:18.825Z,16.94
2017-10-04T00:06:32.173Z,16.92
2017-10-04T00:06:45.539Z,16.91
2017-10-04T00:06:58.926Z,16.92
2017-10-04T00:07:12.295Z,16.94
2017-10-04T00:07:25.109Z,16.88
2017-10-04T00:07:38.529Z,16.87
2017-10-04T00:07:51.955Z,16.91
2017-10-04T00:08:03.738Z,16.9
2017-10-04T00:08:16.638Z,16.92
2017-10-04T00:08:29.970Z,16.94
2017-10-04T00:08:43.383Z,16.95
2017-10-04T00:08:56.202Z,16.88
2017-10-04T00:09:09.576Z,16.92
2017-10-04T00:09:22.891Z,16.99
2017-10-04T00:09:36.272Z,16.95
2017-10-04T00:09:49.086Z,16.94
2017-10-04T00:10:01.952Z,16.99
2017-10-04T00:10:14.798Z,16.91
2017-10-04T00:10:29.564Z,17
2017-10-04T00:10:42.894Z,17
2017-10-04T00:10:56.300Z,16.95
2017-10-04T00:11:08.043Z,16.99
2017-10-04T00:11:20.330Z,17.05
2017-10-04T00:11:33.202Z,17.05
2017-10-04T00:11:46.524Z,16.99
2017-10-04T00:11:59.438Z,16.94
2017-10-04T00:12:11.754Z,17.06
2017-10-04T00:12:24.570Z,17.05
2017-10-04T00:12:37.957Z,16.99
2017-10-04T00:12:51.262Z,17.02
2017-10-04T00:13:02.492Z,17.02
2017-10-04T00:13:15.880Z,16.99
2017-10-04T00:13:28.686Z,17
2017-10-04T00:13:42.046Z,17
2017-10-04T00:13:55.392Z,17.09
2017-10-04T00:14:07.759Z,17.06
2017-10-04T00:14:21.142Z,16.99
2017-10-04T00:14:33.996Z,17.05
2017-10-04T00:14:46.869Z,16.99
2017-10-04T00:14:59.159Z,17.1
2017-10-04T00:15:12.549Z,17.02
2017-10-04T00:15:25.905Z,17.03
2017-10-04T00:15:38.734Z,17.02
2017-10-04T00:15:51.569Z,17.09
2017-10-04T00:16:04.410Z,17.02
2017-10-04T00:16:16.735Z,17.03
2017-10-04T00:16:29.632Z,17.1
2017-10-04T00:16:42.988Z,17.13
2017-10-04T00:16:55.837Z,17.05
2017-10-04T00:17:09.197Z,17.05
2017-10-04T00:17:22.526Z,17.12
2017-10-04T00:17:35.409Z,17.07
2017-10-04T00:17:48.835Z,17.1
2017-10-04T00:18:01.660Z,17.12
2017-10-04T00:18:14.982Z,17.07
2017-10-04T00:18:27.818Z,17.06
2017-10-04T00:18:41.159Z,17.03
2017-10-04T00:18:54.480Z,17.05
2017-10-04T00:19:06.800Z,17.05
2017-10-04T00:19:20.157Z,17.07
2017-10-04T00:19:33.030Z,17.15
2017-10-04T00:19:46.726Z,17.02
2017-10-04T00:19:59.086Z,17.1
2017-10-04T00:20:12.464Z,17.12
2017-10-04T00:20:25.293Z,17.13
2017-10-04T00:20:38.730Z,17.15
2017-10-04T00:20:52.041Z,17.13
2017-10-04T00:21:04.892Z,17.09
2017-10-04T00:21:18.245Z,17.21
2017-10-04T00:21:31.607Z,17.17
2017-10-04T00:21:44.963Z,17.17
2017-10-04T00:21:57.284Z,17.03
2017-10-04T00:22:09.660Z,17.18
2017-10-04T00:22:22.541Z,17.17
2017-10-04T00:22:35.423Z,17.13
2017-10-04T00:22:48.879Z,17.17
2017-10-04T00:23:02.219Z,17.17
2017-10-04T00:23:15.645Z,17.15
2017-10-04T00:23:28.508Z,17.13
2017-10-04T00:23:41.896Z,17.12
2017-10-04T00:23:54.756Z,17.12
2017-10-04T00:24:09.009Z,17.18
2017-10-04T00:24:22.408Z,17.06
2017-10-04T00:24:35.247Z,17.07
2017-10-04T00:24:47.560Z,17.06
2017-10-04T00:24:59.904Z,16.99
2017-10-04T00:25:12.754Z,17.03
2017-10-04T00:25:25.096Z,17.03
2017-10-04T00:25:37.962Z,17.02
2017-10-04T00:25:50.812Z,17.07
2017-10-04T00:26:03.640Z,17.03
2017-10-04T00:26:16.944Z,17.07
2017-10-04T00:26:30.296Z,17.06
2017-10-04T00:26:43.702Z,16.99
2017-10-04T00:26:56.553Z,17.02
2017-10-04T00:27:09.941Z,17.02
2017-10-04T00:27:22.783Z,16.97
2017-10-04T00:27:36.212Z,17.02
2017-10-04T00:27:49.597Z,17.03
2017-10-04T00:28:03.039Z,17.06
2017-10-04T00:28:16.418Z,17.02
2017-10-04T00:28:29.276Z,17.02
2017-10-04T00:28:42.662Z,17.02
2017-10-04T00:28:56.018Z,16.99
2017-10-04T00:29:09.366Z,17
2017-10-04T00:29:22.180Z,16.95
2017-10-04T00:29:35.042Z,16.92
2017-10-04T00:29:47.920Z,16.97
2017-10-04T00:30:00.232Z,16.87
2017-10-04T00:30:12.602Z,16.94
2017-10-04T00:30:26.018Z,16.97
2017-10-04T00:30:39.359Z,16.95
2017-10-04T00:30:52.212Z,16.97
2017-10-04T00:31:05.109Z,16.95
2017-10-04T00:31:17.927Z,16.92
2017-10-04T00:31:30.256Z,16.92
2017-10-04T00:31:43.712Z,16.91
2017-10-04T00:31:57.068Z,16.92
2017-10-04T00:32:10.479Z,16.95
2017-10-04T00:32:23.803Z,16.91
2017-10-04T00:32:37.228Z,16.95
2017-10-04T00:32:50.610Z,16.9
2017-10-04T00:33:04.055Z,16.95
2017-10-04T00:33:16.908Z,16.9
2017-10-04T00:33:30.270Z,16.87
2017-10-04T00:33:43.693Z,16.9
2017-10-04T00:33:56.101Z,16.77
2017-10-04T00:34:08.360Z,16.82
2017-10-04T00:34:21.756Z,16.92
2017-10-04T00:34:35.120Z,16.82
2017-10-04T00:34:48.711Z,16.85
2017-10-04T00:35:01.064Z,16.82
2017-10-04T00:35:13.904Z,16.82
2017-10-04T00:35:26.744Z,16.9
2017-10-04T00:35:39.550Z,16.85
2017-10-04T00:35:52.939Z,16.81
2017-10-04T00:36:05.814Z,16.85
2017-10-04T00:36:18.130Z,16.85
2017-10-04T00:36:31.512Z,16.82
2017-10-04T00:36:44.917Z,16.81
2017-10-04T00:36:57.766Z,16.85
2017-10-04T00:37:10.617Z,16.81
2017-10-04T00:37:22.914Z,16.84
2017-10-04T00:37:35.749Z,16.88
2017-10-04T00:37:49.114Z,16.85
2017-10-04T00:38:01.941Z,16.87
2017-10-04T00:38:15.284Z,16.85
2017-10-04T00:38:28.716Z,16.81
2017-10-04T00:38:41.600Z,16.9
2017-10-04T00:38:55.000Z,16.88
2017-10-04T00:39:08.377Z,16.85
2017-10-04T00:39:21.771Z,16.81
2017-10-04T00:39:35.145Z,16.84
2017-10-04T00:39:48.519Z,16.81
2017-10-04T00:40:00.879Z,16.82
2017-10-04T00:40:14.259Z,16.87
2017-10-04T00:40:27.114Z,16.87
2017-10-04T00:40:38.911Z,16.84
2017-10-04T00:40:51.748Z,16.9
2017-10-04T00:41:04.062Z,16.9
2017-10-04T00:41:17.378Z,16.94
2017-10-04T00:41:30.310Z,16.92
2017-10-04T00:41:43.187Z,16.88
2017-10-04T00:41:56.033Z,16.95
2017-10-04T00:42:09.382Z,16.91
2017-10-04T00:42:22.214Z,16.92
2017-10-04T00:42:35.983Z,16.94
2017-10-04T00:42:48.798Z,16.95
2017-10-04T00:43:01.641Z,16.92
2017-10-04T00:43:14.541Z,16.95
2017-10-04T00:43:27.934Z,16.95
2017-10-04T00:43:40.784Z,16.95
2017-10-04T00:43:54.128Z,16.95
2017-10-04T00:44:06.948Z,16.97
2017-10-04T00:44:20.335Z,16.94
2017-10-04T00:44:33.144Z,16.95
2017-10-04T00:44:46.531Z,17
2017-10-04T00:44:59.880Z,16.92
2017-10-04T00:45:12.733Z,16.99
2017-10-04T00:45:25.564Z,16.91
2017-10-04T00:45:38.925Z,16.99
2017-10-04T00:45:52.339Z,16.92
2017-10-04T00:46:05.226Z,16.97
2017-10-04T00:46:18.109Z,16.9
2017-10-04T00:46:31.582Z,16.94
2017-10-04T00:46:44.426Z,16.95
2017-10-04T00:46:57.830Z,16.97
2017-10-04T00:47:11.214Z,16.88
2017-10-04T00:47:24.545Z,16.9
2017-10-04T00:47:37.926Z,16.91
2017-10-04T00:47:50.764Z,16.9
2017-10-04T00:48:04.149Z,16.81
2017-10-04T00:48:16.967Z,16.92
2017-10-04T00:48:29.803Z,16.95
2017-10-04T00:48:42.641Z,16.84
2017-10-04T00:48:55.550Z,16.97
2017-10-04T00:49:08.934Z,16.91
2017-10-04T00:49:22.318Z,16.95
2017-10-04T00:49:35.669Z,16.92
2017-10-04T00:49:48.519Z,16.97
2017-10-04T00:50:02.659Z,16.95
2017-10-04T00:50:16.020Z,17
2017-10-04T00:50:28.908Z,16.99
2017-10-04T00:50:42.281Z,16.97
2017-10-04T00:50:55.095Z,16.94
2017-10-04T00:51:07.921Z,16.94
2017-10-04T00:51:21.305Z,16.97
2017-10-04T00:51:34.144Z,16.91
2017-10-04T00:51:47.548Z,16.9
2017-10-04T00:52:00.948Z,16.95
2017-10-04T00:52:14.310Z,16.9
2017-10-04T00:52:27.128Z,16.87
2017-10-04T00:52:40.421Z,16.81
2017-10-04T00:52:53.809Z,16.8
2017-10-04T00:53:06.644Z,16.87
2017-10-04T00:53:20.049Z,16.84
2017-10-04T00:53:33.373Z,16.87
2017-10-04T00:53:46.714Z,16.84
2017-10-04T00:53:59.561Z,16.84
2017-10-04T00:54:12.408Z,16.84
2017-10-04T00:54:25.749Z,16.84
2017-10-04T00:54:39.184Z,16.84
2017-10-04T00:54:52.588Z,16.82
2017-10-04T00:55:05.701Z,16.87
2017-10-04T00:55:19.063Z,16.84
2017-10-04T00:55:32.485Z,16.74
2017-10-04T00:55:45.938Z,16.76
2017-10-04T00:55:58.788Z,16.76
2017-10-04T00:56:12.126Z,16.7
2017-10-04T00:56:25.508Z,16.76
2017-10-04T00:56:38.874Z,16.84
2017-10-04T00:56:52.294Z,16.77
2017-10-04T00:57:05.721Z,16.74
2017-10-04T00:57:18.593Z,16.8
2017-10-04T00:57:31.991Z,16.77
2017-10-04T00:57:44.812Z,16.7
2017-10-04T00:57:57.683Z,16.73
2017-10-04T00:58:11.305Z,16.74
2017-10-04T00:58:23.618Z,16.66
2017-10-04T00:58:36.459Z,16.72
2017-10-04T00:58:49.844Z,16.74
2017-10-04T00:59:02.159Z,16.69
2017-10-04T00:59:15.503Z,16.72
2017-10-04T00:59:28.352Z,16.7
2017-10-04T00:59:41.747Z,16.73
2017-10-04T00:59:53.545Z,16.76
2017-10-04T01:00:05.852Z,16.63
2017-10-04T01:00:19.260Z,16.73
2017-10-04T01:00:32.683Z,16.69
2017-10-04T01:00:45.501Z,16.72
2017-10-04T01:00:58.901Z,16.74
2017-10-04T01:01:12.300Z,16.72
2017-10-04T01:01:25.664Z,16.69
2017-10-04T01:01:38.511Z,16.72
2017-10-04T01:01:51.338Z,16.7
2017-10-04T01:02:04.734Z,16.74
2017-10-04T01:02:17.629Z,16.7
2017-10-04T01:02:29.978Z,16.74
2017-10-04T01:02:43.385Z,16.66
2017-10-04T01:02:56.222Z,16.74
2017-10-04T01:03:09.568Z,16.76
2017-10-04T01:03:22.943Z,16.76
2017-10-04T01:03:36.335Z,16.85
2017-10-04T01:03:48.633Z,16.81
2017-10-04T01:04:00.996Z,16.76
2017-10-04T01:04:13.810Z,16.81
2017-10-04T01:04:27.174Z,16.76
2017-10-04T01:04:40.532Z,16.8
2017-10-04T01:04:53.410Z,16.74
2017-10-04T01:05:07.215Z,16.74
2017-10-04T01:05:19.543Z,16.72
2017-10-04T01:05:32.901Z,16.76
2017-10-04T01:05:46.309Z,16.72
2017-10-04T01:05:59.142Z,16.74
2017-10-04T01:06:12.517Z,16.74
2017-10-04T01:06:25.946Z,16.67
2017-10-04T01:06:38.828Z,16.69
2017-10-04T01:06:52.205Z,16.66
2017-10-04T01:07:05.536Z,16.7
2017-10-04T01:07:18.358Z,16.74
2017-10-04T01:07:31.154Z,16.7
2017-10-04T01:07:44.542Z,16.72
2017-10-04T01:07:56.858Z,16.67
2017-10-04T01:08:10.243Z,16.77
2017-10-04T01:08:23.641Z,16.67
2017-10-04T01:08:36.423Z,16.66
2017-10-04T01:08:49.816Z,16.72
2017-10-04T01:09:02.668Z,16.59
2017-10-04T01:09:16.052Z,16.69
2017-10-04T01:09:28.941Z,16.69
2017-10-04T01:09:41.829Z,16.65
2017-10-04T01:09:54.706Z,16.66
2017-10-04T01:10:07.586Z,16.65
2017-10-04T01:10:20.455Z,16.69
2017-10-04T01:10:33.306Z,16.69
2017-10-04T01:10:46.668Z,16.67
2017-10-04T01:10:59.512Z,16.72
2017-10-04T01:11:12.390Z,16.69
2017-10-04T01:11:25.775Z,16.72
2017-10-04T01:11:39.119Z,16.73
2017-10-04T01:11:50.923Z,16.69
2017-10-04T01:12:04.345Z,16.59
2017-10-04T01:12:17.712Z,16.66
2017-10-04T01:12:31.135Z,16.74
2017-10-04T01:12:44.525Z,16.77
2017-10-04T01:12:57.332Z,16.77
2017-10-04T01:13:10.703Z,16.73
2017-10-04T01:13:24.012Z,16.73
2017-10-04T01:13:37.360Z,16.76
2017-10-04T01:13:49.703Z,16.87
2017-10-04T01:14:02.053Z,16.87
2017-10-04T01:14:14.330Z,16.9
2017-10-04T01:14:27.700Z,16.87
2017-10-04T01:14:41.031Z,16.88
2017-10-04T01:14:54.451Z,16.88
2017-10-04T01:15:07.306Z,16.74
2017-10-04T01:15:20.131Z,16.82
2017-10-04T01:15:33.512Z,16.73
2017-10-04T01:15:46.850Z,16.74
2017-10-04T01:15:59.694Z,16.76
2017-10-04T01:16:13.081Z,16.73
2017-10-04T01:16:25.953Z,16.76
2017-10-04T01:16:39.385Z,16.73
2017-10-04T01:16:52.232Z,16.63
2017-10-04T01:17:05.112Z,16.67
2017-10-04T01:17:17.422Z,16.72
2017-10-04T01:17:30.769Z,16.74
2017-10-04T01:17:44.116Z,16.74
2017-10-04T01:17:56.947Z,16.73
2017-10-04T01:18:09.823Z,16.63
2017-10-04T01:18:23.241Z,16.7
2017-10-04T01:18:36.640Z,16.73
2017-10-04T01:18:49.984Z,16.65
2017-10-04T01:19:03.366Z,16.67
2017-10-04T01:19:16.768Z,16.67
2017-10-04T01:19:30.125Z,16.69
2017-10-04T01:19:43.467Z,16.65
2017-10-04T01:19:56.286Z,16.69
2017-10-04T01:20:09.989Z,16.66
2017-10-04T01:20:22.869Z,16.66
2017-10-04T01:20:35.737Z,16.62
2017-10-04T01:20:49.300Z,16.51
2017-10-04T01:21:02.924Z,16.66
2017-10-04T01:21:15.249Z,16.63
2017-10-04T01:21:28.054Z,16.62
2017-10-04T01:21:40.861Z,16.62
2017-10-04T01:21:53.696Z,16.65
2017-10-04T01:22:06.541Z,16.57
2017-10-04T01:22:19.859Z,16.65
2017-10-04T01:22:33.235Z,16.62
2017-10-04T01:22:46.611Z,16.67
2017-10-04T01:22:59.518Z,16.54
2017-10-04T01:23:12.918Z,16.59
2017-10-04T01:23:26.301Z,16.62
2017-10-04T01:23:39.689Z,16.51
2017-10-04T01:23:53.042Z,16.55
2017-10-04T01:24:05.927Z,16.62
2017-10-04T01:24:18.776Z,16.62
2017-10-04T01:24:31.607Z,16.62
2017-10-04T01:24:44.948Z,16.54
2017-10-04T01:24:57.785Z,16.62
2017-10-04T01:25:11.387Z,16.63
2017-10-04T01:25:24.232Z,16.59
2017-10-04T01:25:36.584Z,16.54
2017-10-04T01:25:48.910Z,16.57
2017-10-04T01:26:02.263Z,16.52
2017-10-04T01:26:15.141Z,16.58
2017-10-04T01:26:28.523Z,16.55
2017-10-04T01:26:41.414Z,16.65
2017-10-04T01:26:54.748Z,16.59
2017-10-04T01:27:07.583Z,16.54
2017-10-04T01:27:20.396Z,16.52
2017-10-04T01:27:33.204Z,16.54
2017-10-04T01:27:46.044Z,16.49
2017-10-04T01:27:59.446Z,16.55
2017-10-04T01:28:12.343Z,16.44
2017-10-04T01:28:25.720Z,16.47
2017-10-04T01:28:39.054Z,16.47
2017-10-04T01:28:51.936Z,16.51
2017-10-04T01:29:05.349Z,16.4
2017-10-04T01:29:17.657Z,16.48
2017-10-04T01:29:31.027Z,16.45
2017-10-04T01:29:44.447Z,16.48
2017-10-04T01:29:56.761Z,16.39
2017-10-04T01:30:08.569Z,16.49
2017-10-04T01:30:21.946Z,16.49
2017-10-04T01:30:35.348Z,16.49
2017-10-04T01:30:47.662Z,16.47
2017-10-04T01:31:01.038Z,16.42
2017-10-04T01:31:13.932Z,16.51
2017-10-04T01:31:27.301Z,16.47
2017-10-04T01:31:39.625Z,16.44
2017-10-04T01:31:52.992Z,16.47
2017-10-04T01:32:05.922Z,16.39
2017-10-04T01:32:18.834Z,16.44
2017-10-04T01:32:32.187Z,16.4
2017-10-04T01:32:45.066Z,16.47
2017-10-04T01:32:58.440Z,16.47
2017-10-04T01:33:11.290Z,16.42
2017-10-04T01:33:24.165Z,16.4
2017-10-04T01:33:37.561Z,16.42
2017-10-04T01:33:50.906Z,16.39
2017-10-04T01:34:03.807Z,16.44
2017-10-04T01:34:17.149Z,16.37
2017-10-04T01:34:30.483Z,16.39
2017-10-04T01:34:43.858Z,16.4
2017-10-04T01:34:56.209Z,16.37
2017-10-04T01:35:09.051Z,16.36
2017-10-04T01:35:22.181Z,16.36
2017-10-04T01:35:35.591Z,16.34
2017-10-04T01:35:48.966Z,16.36
2017-10-04T01:36:01.254Z,16.39
2017-10-04T01:36:14.088Z,16.42
2017-10-04T01:36:26.985Z,16.36
2017-10-04T01:36:40.389Z,16.33
2017-10-04T01:36:53.783Z,16.33
2017-10-04T01:37:07.131Z,16.34
2017-10-04T01:37:20.528Z,16.32
2017-10-04T01:37:33.903Z,16.32
2017-10-04T01:37:47.189Z,16.4
2017-10-04T01:38:00.571Z,16.33
2017-10-04T01:38:13.950Z,16.33
2017-10-04T01:38:27.332Z,16.3
2017-10-04T01:38:40.201Z,16.36
2017-10-04T01:38:53.553Z,16.36
2017-10-04T01:39:06.389Z,16.36
2017-10-04T01:39:19.734Z,16.27
2017-10-04T01:39:32.590Z,16.36
2017-10-04T01:39:45.950Z,16.37
2017-10-04T01:39:59.316Z,16.34
2017-10-04T01:40:12.160Z,16.32
2017-10-04T01:40:24.972Z,16.3
2017-10-04T01:40:38.350Z,16.32
2017-10-04T01:40:51.715Z,16.32
2017-10-04T01:41:04.571Z,16.27
2017-10-04T01:41:18.015Z,16.4
2017-10-04T01:41:30.323Z,16.36
2017-10-04T01:41:43.222Z,16.32
2017-10-04T01:41:55.048Z,16.37
2017-10-04T01:42:07.872Z,16.36
2017-10-04T01:42:21.261Z,16.36
2017-10-04T01:42:34.642Z,16.32
2017-10-04T01:42:48.053Z,16.32
2017-10-04T01:43:01.452Z,16.3
2017-10-04T01:43:14.796Z,16.32
2017-10-04T01:43:27.633Z,16.3
2017-10-04T01:43:40.507Z,16.37
2017-10-04T01:43:53.390Z,16.3
2017-10-04T01:44:05.683Z,16.33
2017-10-04T01:44:19.123Z,16.29
2017-10-04T01:44:32.501Z,16.32
2017-10-04T01:44:45.915Z,16.33
2017-10-04T01:44:58.245Z,16.27
2017-10-04T01:45:11.611Z,16.33
2017-10-04T01:45:25.096Z,16.33
2017-10-04T01:45:38.481Z,16.3
2017-10-04T01:45:51.294Z,16.26
2017-10-04T01:46:04.609Z,16.26
2017-10-04T01:46:17.953Z,16.36
2017-10-04T01:46:30.795Z,16.37
2017-10-04T01:46:44.142Z,16.32
2017-10-04T01:46:56.978Z,16.29
2017-10-04T01:47:08.806Z,16.33
2017-10-04T01:47:21.661Z,16.29
2017-10-04T01:47:34.541Z,16.22
2017-10-04T01:47:46.825Z,16.26
2017-10-04T01:47:59.685Z,16.17
2017-10-04T01:48:12.504Z,16.27
2017-10-04T01:48:25.287Z,16.3
2017-10-04T01:48:38.625Z,16.26
2017-10-04T01:48:51.964Z,16.37
2017-10-04T01:49:04.816Z,16.34
2017-10-04T01:49:18.167Z,16.36
2017-10-04T01:49:31.000Z,16.36
2017-10-04T01:49:44.457Z,16.3
2017-10-04T01:49:57.877Z,16.32
2017-10-04T01:50:11.224Z,16.3
2017-10-04T01:50:24.099Z,16.27
2017-10-04T01:50:37.461Z,16.32
2017-10-04T01:50:50.812Z,16.14
2017-10-04T01:51:04.169Z,16.25
2017-10-04T01:51:16.566Z,16.29
2017-10-04T01:51:29.945Z,16.26
2017-10-04T01:51:43.292Z,16.17
2017-10-04T01:51:55.607Z,16.16
2017-10-04T01:52:08.450Z,16.22
2017-10-04T01:52:21.905Z,16.29
2017-10-04T01:52:36.694Z,16.17
2017-10-04T01:52:49.573Z,16.16
2017-10-04T01:53:03.244Z,16.29
2017-10-04T01:53:16.073Z,16.14
2017-10-04T01:53:29.414Z,16.21
2017-10-04T01:53:42.786Z,16.25
2017-10-04T01:53:55.670Z,16.26
2017-10-04T01:54:07.668Z,16.21
2017-10-04T01:54:21.056Z,16.22
2017-10-04T01:54:33.907Z,16.17
2017-10-04T01:54:47.278Z,16.21
2017-10-04T01:55:00.119Z,16.17
2017-10-04T01:55:12.989Z,16.27
2017-10-04T01:55:26.459Z,16.22
2017-10-04T01:55:39.913Z,16.17
2017-10-04T01:55:52.750Z,16.16
2017-10-04T01:56:05.632Z,16.22
2017-10-04T01:56:18.476Z,16.22
2017-10-04T01:56:31.812Z,16.27
2017-10-04T01:56:45.225Z,16.16
2017-10-04T01:56:58.047Z,16.29
2017-10-04T01:57:11.373Z,16.27
2017-10-04T01:57:24.213Z,16.3
2017-10-04T01:57:37.062Z,16.22
2017-10-04T01:57:49.867Z,16.22
2017-10-04T01:58:02.713Z,16.32
2017-10-04T01:58:15.550Z,16.25
2017-10-04T01:58:28.936Z,16.25
2017-10-04T01:58:41.765Z,16.26
2017-10-04T01:58:54.622Z,16.29
2017-10-04T01:59:07.900Z,16.26
2017-10-04T01:59:21.332Z,16.25
2017-10-04T01:59:34.723Z,16.22
2017-10-04T01:59:48.046Z,16.34
2017-10-04T02:00:00.903Z,16.34
2017-10-04T02:00:13.168Z,16.33
2017-10-04T02:00:26.553Z,16.34
2017-10-04T02:00:39.892Z,16.34
2017-10-04T02:00:52.225Z,16.36
2017-10-04T02:01:05.084Z,16.34
2017-10-04T02:01:18.413Z,16.25
2017-10-04T02:01:31.820Z,16.36
2017-10-04T02:01:45.235Z,16.27
2017-10-04T02:01:58.582Z,16.27
2017-10-04T02:02:11.941Z,16.27
2017-10-04T02:02:25.391Z,16.32
2017-10-04T02:02:38.781Z,16.29
2017-10-04T02:02:51.172Z,16.36
2017-10-04T02:03:04.511Z,16.29
2017-10-04T02:03:17.895Z,16.36
2017-10-04T02:03:30.747Z,16.36
2017-10-04T02:03:44.148Z,16.36
2017-10-04T02:03:57.463Z,16.37
2017-10-04T02:04:10.878Z,16.33
2017-10-04T02:04:23.172Z,16.36
2017-10-04T02:04:36.114Z,16.3
2017-10-04T02:04:49.532Z,16.27
2017-10-04T02:05:02.911Z,16.36
2017-10-04T02:05:16.342Z,16.29
2017-10-04T02:05:30.243Z,16.33
2017-10-04T02:05:43.680Z,16.29
2017-10-04T02:05:56.502Z,16.36
2017-10-04T02:06:08.310Z,16.32
2017-10-04T02:06:20.657Z,16.22
2017-10-04T02:06:34.031Z,16.37
2017-10-04T02:06:47.472Z,16.34
2017-10-04T02:07:00.870Z,16.3
2017-10-04T02:07:13.173Z,16.25
2017-10-04T02:07:25.984Z,16.32
2017-10-04T02:07:38.837Z,16.29
2017-10-04T02:07:52.188Z,16.3
2017-10-04T02:08:04.490Z,16.33
2017-10-04T02:08:17.287Z,16.26
2017-10-04T02:08:30.642Z,16.27
2017-10-04T02:08:43.994Z,16.22
2017-10-04T02:08:56.897Z,16.34
2017-10-04T02:09:10.296Z,16.27
2017-10-04T02:09:23.674Z,16.3
2017-10-04T02:09:37.101Z,16.3
2017-10-04T02:09:50.501Z,16.29
2017-10-04T02:10:03.922Z,16.26
2017-10-04T02:10:16.813Z,16.29
2017-10-04T02:10:29.675Z,16.26
2017-10-04T02:10:43.040Z,16.32
2017-10-04T02:10:55.872Z,16.32
2017-10-04T02:11:09.303Z,16.34
2017-10-04T02:11:22.154Z,16.34
2017-10-04T02:11:35.607Z,16.29
2017-10-04T02:11:48.442Z,16.34
2017-10-04T02:12:01.830Z,16.29
2017-10-04T02:12:15.266Z,16.36
2017-10-04T02:12:28.683Z,16.36
2017-10-04T02:12:41.504Z,16.34
2017-10-04T02:12:54.353Z,16.32
2017-10-04T02:13:07.789Z,16.29
2017-10-04T02:13:20.619Z,16.22
2017-10-04T02:13:33.994Z,16.22
2017-10-04T02:13:47.371Z,16.33
2017-10-04T02:14:00.707Z,16.32
2017-10-04T02:14:14.082Z,16.26
2017-10-04T02:14:27.433Z,16.3
2017-10-04T02:14:40.780Z,16.26
2017-10-04T02:14:54.215Z,16.29
2017-10-04T02:15:07.067Z,16.22
2017-10-04T02:15:20.469Z,16.27
2017-10-04T02:15:34.024Z,16.26
2017-10-04T02:15:47.368Z,16.21
2017-10-04T02:16:00.742Z,16.21
2017-10-04T02:16:14.174Z,16.21
2017-10-04T02:16:27.458Z,16.25
2017-10-04T02:16:40.891Z,16.18
2017-10-04T02:16:54.296Z,16.17
2017-10-04T02:17:07.656Z,16.25
2017-10-04T02:17:21.078Z,16.11
2017-10-04T02:17:33.955Z,16.22
2017-10-04T02:17:47.360Z,16.25
2017-10-04T02:17:59.676Z,16.14
2017-10-04T02:18:12.007Z,16.17
2017-10-04T02:18:25.410Z,16.25
2017-10-04T02:18:38.813Z,16.17
2017-10-04T02:18:51.104Z,16.14
2017-10-04T02:19:03.952Z,16.16
2017-10-04T02:19:17.339Z,16.25
2017-10-04T02:19:30.680Z,16.22
2017-10-04T02:19:44.009Z,16.16
2017-10-04T02:19:56.313Z,16.21
2017-10-04T02:20:09.658Z,16.16
2017-10-04T02:20:22.993Z,16.18
2017-10-04T02:20:37.282Z,16.13
2017-10-04T02:20:49.628Z,16.11
2017-10-04T02:21:02.518Z,16.13
2017-10-04T02:21:15.934Z,16.17
2017-10-04T02:21:29.349Z,16.14
2017-10-04T02:21:42.188Z,16.11
2017-10-04T02:21:55.536Z,16.18
2017-10-04T02:22:08.901Z,16.17
2017-10-04T02:22:22.273Z,16.18
2017-10-04T02:22:35.674Z,16.1
2017-10-04T02:22:49.055Z,16.17
2017-10-04T02:23:00.851Z,16.17
2017-10-04T02:23:13.238Z,16.14
2017-10-04T02:23:26.076Z,16.18
2017-10-04T02:23:38.875Z,16.25
2017-10-04T02:23:52.264Z,16.21
2017-10-04T02:24:05.125Z,16.18
2017-10-04T02:24:17.454Z,16.22
2017-10-04T02:24:30.864Z,16.17
2017-10-04T02:24:44.237Z,16.22
2017-10-04T02:24:57.605Z,16.18
2017-10-04T02:25:10.968Z,16.22
2017-10-04T02:25:23.849Z,16.17
2017-10-04T02:25:37.288Z,16.21
2017-10-04T02:25:50.730Z,16.11
2017-10-04T02:26:03.589Z,16.21
2017-10-04T02:26:16.447Z,16.14
2017-10-04T02:26:29.290Z,16.21
2017-10-04T02:26:41.585Z,16.13
2017-10-04T02:26:53.933Z,16.18
2017-10-04T02:27:06.778Z,16.13
2017-10-04T02:27:20.186Z,16.14
2017-10-04T02:27:32.518Z,16.16
2017-10-04T02:27:45.878Z,16.14
2017-10-04T02:27:58.742Z,16.18
2017-10-04T02:28:11.636Z,16.16
2017-10-04T02:28:25.025Z,16.18
2017-10-04T02:28:37.883Z,16.11
2017-10-04T02:28:51.208Z,16.21
2017-10-04T02:29:03.543Z,16.17
2017-10-04T02:29:15.859Z,16.16
2017-10-04T02:29:28.745Z,16.16
2017-10-04T02:29:41.609Z,16.18
2017-10-04T02:29:54.459Z,16.18
2017-10-04T02:30:07.874Z,16.13
2017-10-04T02:30:20.744Z,16.17
2017-10-04T02:30:34.084Z,16.18
2017-10-04T02:30:47.426Z,16.11
2017-10-04T02:31:00.838Z,16.13
2017-10-04T02:31:13.633Z,16.21
2017-10-04T02:31:26.472Z,16.1
2017-10-04T02:31:39.337Z,16.14
2017-10-04T02:31:52.170Z,16.11
2017-10-04T02:32:04.511Z,16.17
2017-10-04T02:32:17.911Z,16.21
2017-10-04T02:32:31.311Z,16.17
2017-10-04T02:32:44.726Z,16.11
2017-10-04T02:32:57.583Z,16.11
2017-10-04T02:33:10.454Z,16.21
2017-10-04T02:33:23.335Z,16.14
2017-10-04T02:33:36.346Z,16.17
2017-10-04T02:33:49.187Z,16.13
2017-10-04T02:34:01.991Z,16.13
2017-10-04T02:34:14.834Z,16.13
2017-10-04T02:34:28.202Z,16.13
2017-10-04T02:34:41.617Z,16.16
2017-10-04T02:34:55.041Z,16.1
2017-10-04T02:35:08.420Z,16.17
2017-10-04T02:35:21.310Z,16.07
2017-10-04T02:35:34.748Z,16.17
2017-10-04T02:35:48.400Z,16.14
2017-10-04T02:36:01.272Z,16.13
2017-10-04T02:36:14.604Z,16.1
2017-10-04T02:36:27.992Z,16.16
2017-10-04T02:36:40.792Z,16.16
2017-10-04T02:36:54.180Z,16.17
2017-10-04T02:37:07.023Z,16.07
2017-10-04T02:37:19.316Z,16.1
2017-10-04T02:37:31.633Z,16.14
2017-10-04T02:37:43.917Z,15.99
2017-10-04T02:37:57.325Z,16.11
2017-10-04T02:38:10.185Z,16.17
2017-10-04T02:38:23.570Z,16.14
2017-10-04T02:38:36.960Z,16.1
2017-10-04T02:38:50.345Z,16.1
2017-10-04T02:39:03.146Z,16.14
2017-10-04T02:39:16.021Z,16.13
2017-10-04T02:39:28.916Z,16.08
2017-10-04T02:39:42.272Z,16.21
2017-10-04T02:39:55.099Z,16.11
2017-10-04T02:40:07.966Z,16.14
2017-10-04T02:40:20.864Z,16.11
2017-10-04T02:40:34.231Z,16
2017-10-04T02:40:47.071Z,15.99
2017-10-04T02:40:59.903Z,16.06
2017-10-04T02:41:12.783Z,16.07
2017-10-04T02:41:26.178Z,16.08
2017-10-04T02:41:39.577Z,16.1
2017-10-04T02:41:52.946Z,16.11
2017-10-04T02:42:05.799Z,16.1
2017-10-04T02:42:19.189Z,16.1
2017-10-04T02:42:32.008Z,15.99
2017-10-04T02:42:45.344Z,16.13
2017-10-04T02:42:58.198Z,16.07
2017-10-04T02:43:11.019Z,16.13
2017-10-04T02:43:24.386Z,16.13
2017-10-04T02:43:38.051Z,16.07
2017-10-04T02:43:51.437Z,16.02
2017-10-04T02:44:04.332Z,16.08
2017-10-04T02:44:17.198Z,16.14
2017-10-04T02:44:30.577Z,16.06
2017-10-04T02:44:43.996Z,16.06
2017-10-04T02:44:56.806Z,16.11
2017-10-04T02:45:09.647Z,16.17
2017-10-04T02:45:23.021Z,16.02
2017-10-04T02:45:36.346Z,16.1
2017-10-04T02:45:49.745Z,15.96
2017-10-04T02:46:03.126Z,16.04
2017-10-04T02:46:15.464Z,16.06
2017-10-04T02:46:28.351Z,16.06
2017-10-04T02:46:41.741Z,16.11
2017-10-04T02:46:55.096Z,16.02
2017-10-04T02:47:08.446Z,16.04
2017-10-04T02:47:21.825Z,16.07
2017-10-04T02:47:34.727Z,16.11
2017-10-04T02:47:48.131Z,16.02
2017-10-04T02:48:00.452Z,15.98
2017-10-04T02:48:13.898Z,16.06
2017-10-04T02:48:26.729Z,16.02
2017-10-04T02:48:39.582Z,16
2017-10-04T02:48:51.922Z,16.06